sensor_id;sensor_type;location;lat;lon;timestamp;P1;durP1;ratioP1;P2;durP2;ratioP2
22754;SDS011;11544;42.020;23.094;2023-12-29T00:01:40;8.63;;;5.07;;
22754;SDS011;11544;42.020;23.094;2023-12-29T00:04:07;11.93;;;6.28;;
22754;SDS011;11544;42.020;23.094;2023-12-29T00:06:37;15.80;;;7.57;;
22754;SDS011;11544;42.020;23.094;2023-12-29T00:09:19;11.38;;;6.18;;
22754;SDS011;11544;42.020;23.094;2023-12-29T00:11:49;11.88;;;6.07;;
22754;SDS011;11544;42.020;23.094;2023-12-29T00:14:17;16.15;;;6.18;;
22754;SDS011;11544;42.020;23.094;2023-12-29T00:16:44;13.02;;;6.38;;
22754;SDS011;11544;42.020;23.094;2023-12-29T00:19:11;11.23;;;6.55;;
22754;SDS011;11544;42.020;23.094;2023-12-29T00:21:39;16.73;;;6.97;;
22754;SDS011;11544;42.020;23.094;2023-12-29T00:24:06;10.70;;;5.60;;
22754;SDS011;11544;42.020;23.094;2023-12-29T00:26:33;11.90;;;6.70;;
22754;SDS011;11544;42.020;23.094;2023-12-29T00:28:59;9.85;;;5.70;;
22754;SDS011;11544;42.020;23.094;2023-12-29T00:31:26;10.65;;;6.20;;
22754;SDS011;11544;42.020;23.094;2023-12-29T00:36:39;23.20;;;12.82;;
22754;SDS011;11544;42.020;23.094;2023-12-29T00:39:05;21.75;;;11.55;;
22754;SDS011;11544;42.020;23.094;2023-12-29T00:41:32;28.38;;;13.98;;
22754;SDS011;11544;42.020;23.094;2023-12-29T00:44:00;28.73;;;14.73;;
22754;SDS011;11544;42.020;23.094;2023-12-29T00:46:27;31.90;;;15.60;;
22754;SDS011;11544;42.020;23.094;2023-12-29T00:48:54;29.92;;;15.55;;
22754;SDS011;11544;42.020;23.094;2023-12-29T00:51:21;24.98;;;12.95;;
22754;SDS011;11544;42.020;23.094;2023-12-29T00:53:48;29.45;;;14.25;;
22754;SDS011;11544;42.020;23.094;2023-12-29T00:56:15;25.85;;;13.00;;
22754;SDS011;11544;42.020;23.094;2023-12-29T00:58:42;28.60;;;14.60;;
22754;SDS011;11544;42.020;23.094;2023-12-29T01:01:09;31.23;;;13.77;;
22754;SDS011;11544;42.020;23.094;2023-12-29T01:03:38;20.42;;;10.75;;
22754;SDS011;11544;42.020;23.094;2023-12-29T01:06:05;21.38;;;10.60;;
22754;SDS011;11544;42.020;23.094;2023-12-29T01:08:32;19.33;;;10.93;;
22754;SDS011;11544;42.020;23.094;2023-12-29T01:11:00;27.70;;;11.27;;
22754;SDS011;11544;42.020;23.094;2023-12-29T01:13:27;13.82;;;7.88;;
22754;SDS011;11544;42.020;23.094;2023-12-29T01:15:54;15.75;;;8.70;;
22754;SDS011;11544;42.020;23.094;2023-12-29T01:18:21;20.90;;;9.60;;
22754;SDS011;11544;42.020;23.094;2023-12-29T01:20:48;14.35;;;8.73;;
22754;SDS011;11544;42.020;23.094;2023-12-29T01:23:15;13.68;;;8.00;;
22754;SDS011;11544;42.020;23.094;2023-12-29T01:25:43;14.73;;;8.57;;
22754;SDS011;11544;42.020;23.094;2023-12-29T01:28:10;18.95;;;8.98;;
22754;SDS011;11544;42.020;23.094;2023-12-29T01:30:38;16.33;;;8.95;;
22754;SDS011;11544;42.020;23.094;2023-12-29T01:33:05;19.85;;;10.73;;
22754;SDS011;11544;42.020;23.094;2023-12-29T01:35:32;28.25;;;14.75;;
22754;SDS011;11544;42.020;23.094;2023-12-29T01:37:59;26.58;;;15.00;;
22754;SDS011;11544;42.020;23.094;2023-12-29T01:40:27;28.77;;;15.40;;
22754;SDS011;11544;42.020;23.094;2023-12-29T01:42:54;30.13;;;16.80;;
22754;SDS011;11544;42.020;23.094;2023-12-29T01:45:22;31.50;;;16.65;;
22754;SDS011;11544;42.020;23.094;2023-12-29T01:47:50;27.58;;;16.25;;
22754;SDS011;11544;42.020;23.094;2023-12-29T01:50:19;27.25;;;16.33;;
22754;SDS011;11544;42.020;23.094;2023-12-29T01:52:48;28.75;;;14.85;;
22754;SDS011;11544;42.020;23.094;2023-12-29T01:55:18;28.80;;;15.32;;
22754;SDS011;11544;42.020;23.094;2023-12-29T01:57:48;32.17;;;15.80;;
22754;SDS011;11544;42.020;23.094;2023-12-29T02:00:16;28.95;;;14.48;;
22754;SDS011;11544;42.020;23.094;2023-12-29T02:02:47;27.20;;;14.60;;
22754;SDS011;11544;42.020;23.094;2023-12-29T02:05:15;31.35;;;14.48;;
22754;SDS011;11544;42.020;23.094;2023-12-29T02:07:43;27.50;;;14.57;;
22754;SDS011;11544;42.020;23.094;2023-12-29T02:10:11;25.70;;;14.43;;
22754;SDS011;11544;42.020;23.094;2023-12-29T02:12:42;27.63;;;15.40;;
22754;SDS011;11544;42.020;23.094;2023-12-29T02:15:10;27.58;;;14.00;;
22754;SDS011;11544;42.020;23.094;2023-12-29T02:17:41;25.45;;;12.55;;
22754;SDS011;11544;42.020;23.094;2023-12-29T02:20:12;24.80;;;13.65;;
22754;SDS011;11544;42.020;23.094;2023-12-29T02:22:39;29.80;;;12.65;;
22754;SDS011;11544;42.020;23.094;2023-12-29T02:25:06;20.13;;;11.80;;
22754;SDS011;11544;42.020;23.094;2023-12-29T02:32:45;20.15;;;9.85;;
22754;SDS011;11544;42.020;23.094;2023-12-29T02:35:14;24.48;;;11.02;;
22754;SDS011;11544;42.020;23.094;2023-12-29T02:37:44;21.50;;;10.82;;
22754;SDS011;11544;42.020;23.094;2023-12-29T02:40:14;16.08;;;9.40;;
22754;SDS011;11544;42.020;23.094;2023-12-29T02:42:49;15.77;;;8.50;;
22754;SDS011;11544;42.020;23.094;2023-12-29T02:45:16;17.42;;;8.80;;
22754;SDS011;11544;42.020;23.094;2023-12-29T02:47:44;19.00;;;8.43;;
22754;SDS011;11544;42.020;23.094;2023-12-29T02:50:11;16.38;;;7.57;;
22754;SDS011;11544;42.020;23.094;2023-12-29T02:52:38;13.13;;;7.18;;
22754;SDS011;11544;42.020;23.094;2023-12-29T02:55:05;14.10;;;7.50;;
22754;SDS011;11544;42.020;23.094;2023-12-29T02:57:32;11.73;;;6.97;;
22754;SDS011;11544;42.020;23.094;2023-12-29T02:59:59;15.40;;;7.82;;
22754;SDS011;11544;42.020;23.094;2023-12-29T03:02:27;14.82;;;7.68;;
22754;SDS011;11544;42.020;23.094;2023-12-29T03:04:54;17.02;;;9.27;;
22754;SDS011;11544;42.020;23.094;2023-12-29T03:07:21;15.45;;;8.13;;
22754;SDS011;11544;42.020;23.094;2023-12-29T03:09:48;12.82;;;7.18;;
22754;SDS011;11544;42.020;23.094;2023-12-29T03:12:15;16.98;;;8.35;;
22754;SDS011;11544;42.020;23.094;2023-12-29T03:14:41;16.67;;;7.63;;
22754;SDS011;11544;42.020;23.094;2023-12-29T03:17:09;14.75;;;8.05;;
22754;SDS011;11544;42.020;23.094;2023-12-29T03:19:36;25.23;;;13.98;;
22754;SDS011;11544;42.020;23.094;2023-12-29T03:22:03;25.58;;;15.48;;
22754;SDS011;11544;42.020;23.094;2023-12-29T03:24:30;37.47;;;18.05;;
22754;SDS011;11544;42.020;23.094;2023-12-29T03:26:57;34.10;;;16.58;;
22754;SDS011;11544;42.020;23.094;2023-12-29T03:29:24;31.88;;;16.58;;
22754;SDS011;11544;42.020;23.094;2023-12-29T03:31:51;30.35;;;15.95;;
22754;SDS011;11544;42.020;23.094;2023-12-29T03:34:18;30.13;;;15.35;;
22754;SDS011;11544;42.020;23.094;2023-12-29T03:36:46;32.53;;;14.40;;
22754;SDS011;11544;42.020;23.094;2023-12-29T03:39:13;30.77;;;15.63;;
22754;SDS011;11544;42.020;23.094;2023-12-29T03:41:40;29.77;;;15.55;;
22754;SDS011;11544;42.020;23.094;2023-12-29T03:44:07;35.70;;;16.98;;
22754;SDS011;11544;42.020;23.094;2023-12-29T03:46:34;34.40;;;16.88;;
22754;SDS011;11544;42.020;23.094;2023-12-29T03:49:02;37.35;;;16.67;;
22754;SDS011;11544;42.020;23.094;2023-12-29T03:51:29;31.02;;;15.43;;
22754;SDS011;11544;42.020;23.094;2023-12-29T03:53:57;36.13;;;18.33;;
22754;SDS011;11544;42.020;23.094;2023-12-29T03:56:27;35.53;;;16.35;;
22754;SDS011;11544;42.020;23.094;2023-12-29T03:58:54;30.35;;;15.23;;
22754;SDS011;11544;42.020;23.094;2023-12-29T04:01:21;33.20;;;16.23;;
22754;SDS011;11544;42.020;23.094;2023-12-29T04:03:48;35.05;;;16.10;;
22754;SDS011;11544;42.020;23.094;2023-12-29T04:06:15;46.42;;;16.83;;
22754;SDS011;11544;42.020;23.094;2023-12-29T04:08:42;37.10;;;15.60;;
22754;SDS011;11544;42.020;23.094;2023-12-29T04:11:09;39.63;;;17.40;;
22754;SDS011;11544;42.020;23.094;2023-12-29T04:13:37;47.63;;;18.75;;
22754;SDS011;11544;42.020;23.094;2023-12-29T04:16:04;45.70;;;17.65;;
22754;SDS011;11544;42.020;23.094;2023-12-29T04:18:31;41.95;;;17.30;;
22754;SDS011;11544;42.020;23.094;2023-12-29T04:20:58;39.30;;;17.10;;
22754;SDS011;11544;42.020;23.094;2023-12-29T04:23:25;30.98;;;14.68;;
22754;SDS011;11544;42.020;23.094;2023-12-29T04:25:52;32.53;;;15.50;;
22754;SDS011;11544;42.020;23.094;2023-12-29T04:28:19;43.72;;;17.27;;
22754;SDS011;11544;42.020;23.094;2023-12-29T04:30:46;36.42;;;16.35;;
22754;SDS011;11544;42.020;23.094;2023-12-29T04:33:13;35.75;;;15.45;;
22754;SDS011;11544;42.020;23.094;2023-12-29T04:35:39;41.63;;;15.98;;
22754;SDS011;11544;42.020;23.094;2023-12-29T04:38:06;35.08;;;16.17;;
22754;SDS011;11544;42.020;23.094;2023-12-29T04:40:33;37.75;;;16.27;;
22754;SDS011;11544;42.020;23.094;2023-12-29T04:43:00;37.65;;;17.05;;
22754;SDS011;11544;42.020;23.094;2023-12-29T04:45:27;35.17;;;15.55;;
22754;SDS011;11544;42.020;23.094;2023-12-29T04:47:55;33.13;;;14.82;;
22754;SDS011;11544;42.020;23.094;2023-12-29T04:50:22;43.72;;;15.95;;
22754;SDS011;11544;42.020;23.094;2023-12-29T04:52:49;40.60;;;14.95;;
22754;SDS011;11544;42.020;23.094;2023-12-29T04:55:16;38.08;;;16.52;;
22754;SDS011;11544;42.020;23.094;2023-12-29T04:57:43;28.95;;;13.93;;
22754;SDS011;11544;42.020;23.094;2023-12-29T05:00:11;36.08;;;14.50;;
22754;SDS011;11544;42.020;23.094;2023-12-29T05:02:38;36.45;;;16.25;;
22754;SDS011;11544;42.020;23.094;2023-12-29T05:05:05;49.38;;;18.60;;
22754;SDS011;11544;42.020;23.094;2023-12-29T05:07:32;49.13;;;19.38;;
22754;SDS011;11544;42.020;23.094;2023-12-29T05:09:59;52.05;;;20.92;;
22754;SDS011;11544;42.020;23.094;2023-12-29T05:12:26;49.03;;;19.20;;
22754;SDS011;11544;42.020;23.094;2023-12-29T05:14:53;43.88;;;19.75;;
22754;SDS011;11544;42.020;23.094;2023-12-29T05:17:20;40.28;;;19.20;;
22754;SDS011;11544;42.020;23.094;2023-12-29T05:19:46;43.50;;;18.02;;
22754;SDS011;11544;42.020;23.094;2023-12-29T05:22:14;46.17;;;18.85;;
22754;SDS011;11544;42.020;23.094;2023-12-29T05:24:43;38.97;;;16.65;;
22754;SDS011;11544;42.020;23.094;2023-12-29T05:27:11;47.20;;;18.55;;
22754;SDS011;11544;42.020;23.094;2023-12-29T05:29:38;42.63;;;17.98;;
22754;SDS011;11544;42.020;23.094;2023-12-29T05:32:06;53.28;;;19.38;;
22754;SDS011;11544;42.020;23.094;2023-12-29T05:34:33;43.75;;;18.10;;
22754;SDS011;11544;42.020;23.094;2023-12-29T05:37:01;43.90;;;17.92;;
22754;SDS011;11544;42.020;23.094;2023-12-29T05:39:28;45.58;;;16.35;;
22754;SDS011;11544;42.020;23.094;2023-12-29T05:41:55;51.58;;;18.33;;
22754;SDS011;11544;42.020;23.094;2023-12-29T05:44:22;43.47;;;17.65;;
22754;SDS011;11544;42.020;23.094;2023-12-29T05:46:49;42.40;;;15.75;;
22754;SDS011;11544;42.020;23.094;2023-12-29T05:49:17;43.88;;;16.73;;
22754;SDS011;11544;42.020;23.094;2023-12-29T05:51:44;47.60;;;17.45;;
22754;SDS011;11544;42.020;23.094;2023-12-29T05:54:11;41.40;;;18.17;;
22754;SDS011;11544;42.020;23.094;2023-12-29T05:56:38;51.33;;;18.67;;
22754;SDS011;11544;42.020;23.094;2023-12-29T05:59:05;34.83;;;14.27;;
22754;SDS011;11544;42.020;23.094;2023-12-29T06:01:32;48.28;;;21.10;;
22754;SDS011;11544;42.020;23.094;2023-12-29T06:03:59;49.80;;;17.48;;
22754;SDS011;11544;42.020;23.094;2023-12-29T06:06:26;44.45;;;18.67;;
22754;SDS011;11544;42.020;23.094;2023-12-29T06:08:53;39.80;;;18.40;;
22754;SDS011;11544;42.020;23.094;2023-12-29T06:11:20;47.05;;;19.55;;
22754;SDS011;11544;42.020;23.094;2023-12-29T06:13:47;42.13;;;17.48;;
22754;SDS011;11544;42.020;23.094;2023-12-29T06:16:18;45.65;;;18.85;;
22754;SDS011;11544;42.020;23.094;2023-12-29T06:18:46;41.58;;;18.38;;
22754;SDS011;11544;42.020;23.094;2023-12-29T06:21:14;43.92;;;18.95;;
22754;SDS011;11544;42.020;23.094;2023-12-29T06:23:41;41.58;;;18.33;;
22754;SDS011;11544;42.020;23.094;2023-12-29T06:26:15;49.17;;;18.85;;
22754;SDS011;11544;42.020;23.094;2023-12-29T06:28:47;47.13;;;18.98;;
22754;SDS011;11544;42.020;23.094;2023-12-29T06:31:14;43.85;;;18.27;;
22754;SDS011;11544;42.020;23.094;2023-12-29T06:33:42;45.75;;;19.02;;
22754;SDS011;11544;42.020;23.094;2023-12-29T06:36:10;55.20;;;20.88;;
22754;SDS011;11544;42.020;23.094;2023-12-29T06:38:37;42.03;;;18.90;;
22754;SDS011;11544;42.020;23.094;2023-12-29T06:41:04;47.95;;;20.58;;
22754;SDS011;11544;42.020;23.094;2023-12-29T06:43:31;55.17;;;17.20;;
22754;SDS011;11544;42.020;23.094;2023-12-29T06:45:58;49.40;;;17.88;;
22754;SDS011;11544;42.020;23.094;2023-12-29T06:48:25;47.40;;;18.08;;
22754;SDS011;11544;42.020;23.094;2023-12-29T06:50:52;57.80;;;19.50;;
22754;SDS011;11544;42.020;23.094;2023-12-29T06:53:19;49.75;;;18.08;;
22754;SDS011;11544;42.020;23.094;2023-12-29T06:55:46;41.05;;;19.20;;
22754;SDS011;11544;42.020;23.094;2023-12-29T06:58:13;51.78;;;19.67;;
22754;SDS011;11544;42.020;23.094;2023-12-29T07:00:40;47.63;;;19.40;;
22754;SDS011;11544;42.020;23.094;2023-12-29T07:03:12;58.17;;;20.83;;
22754;SDS011;11544;42.020;23.094;2023-12-29T07:05:39;54.85;;;22.00;;
22754;SDS011;11544;42.020;23.094;2023-12-29T07:08:06;56.75;;;21.67;;
22754;SDS011;11544;42.020;23.094;2023-12-29T07:10:34;57.00;;;21.38;;
22754;SDS011;11544;42.020;23.094;2023-12-29T07:13:01;48.92;;;22.33;;
22754;SDS011;11544;42.020;23.094;2023-12-29T07:15:28;51.22;;;20.92;;
22754;SDS011;11544;42.020;23.094;2023-12-29T07:17:56;45.70;;;19.70;;
22754;SDS011;11544;42.020;23.094;2023-12-29T07:20:24;54.05;;;21.00;;
22754;SDS011;11544;42.020;23.094;2023-12-29T07:22:51;59.50;;;23.10;;
22754;SDS011;11544;42.020;23.094;2023-12-29T07:25:18;59.50;;;24.02;;
22754;SDS011;11544;42.020;23.094;2023-12-29T07:27:45;47.35;;;21.35;;
22754;SDS011;11544;42.020;23.094;2023-12-29T07:30:12;47.20;;;20.55;;
22754;SDS011;11544;42.020;23.094;2023-12-29T07:32:39;52.83;;;22.83;;
22754;SDS011;11544;42.020;23.094;2023-12-29T07:35:07;60.33;;;21.15;;
22754;SDS011;11544;42.020;23.094;2023-12-29T07:37:34;55.28;;;22.23;;
22754;SDS011;11544;42.020;23.094;2023-12-29T07:40:01;49.30;;;22.35;;
22754;SDS011;11544;42.020;23.094;2023-12-29T07:42:29;61.17;;;26.17;;
22754;SDS011;11544;42.020;23.094;2023-12-29T07:44:56;42.88;;;19.67;;
22754;SDS011;11544;42.020;23.094;2023-12-29T07:47:23;53.75;;;20.88;;
22754;SDS011;11544;42.020;23.094;2023-12-29T07:49:50;46.53;;;18.88;;
22754;SDS011;11544;42.020;23.094;2023-12-29T07:52:17;48.92;;;19.15;;
22754;SDS011;11544;42.020;23.094;2023-12-29T07:54:44;53.20;;;19.90;;
22754;SDS011;11544;42.020;23.094;2023-12-29T07:57:11;53.53;;;19.38;;
22754;SDS011;11544;42.020;23.094;2023-12-29T07:59:38;46.33;;;20.77;;
22754;SDS011;11544;42.020;23.094;2023-12-29T08:02:05;54.42;;;20.58;;
22754;SDS011;11544;42.020;23.094;2023-12-29T08:04:32;62.95;;;23.95;;
22754;SDS011;11544;42.020;23.094;2023-12-29T08:06:59;61.72;;;23.02;;
22754;SDS011;11544;42.020;23.094;2023-12-29T08:09:27;51.47;;;22.65;;
22754;SDS011;11544;42.020;23.094;2023-12-29T08:11:54;43.65;;;20.33;;
22754;SDS011;11544;42.020;23.094;2023-12-29T08:14:21;56.50;;;22.27;;
22754;SDS011;11544;42.020;23.094;2023-12-29T08:16:48;55.38;;;21.38;;
22754;SDS011;11544;42.020;23.094;2023-12-29T08:19:16;52.00;;;20.73;;
22754;SDS011;11544;42.020;23.094;2023-12-29T08:21:43;43.47;;;19.77;;
22754;SDS011;11544;42.020;23.094;2023-12-29T08:24:10;42.95;;;18.63;;
22754;SDS011;11544;42.020;23.094;2023-12-29T08:26:55;44.25;;;17.88;;
22754;SDS011;11544;42.020;23.094;2023-12-29T08:29:22;37.92;;;15.18;;
22754;SDS011;11544;42.020;23.094;2023-12-29T08:31:51;30.80;;;14.77;;
22754;SDS011;11544;42.020;23.094;2023-12-29T08:34:19;27.73;;;13.70;;
22754;SDS011;11544;42.020;23.094;2023-12-29T08:36:46;26.55;;;13.25;;
22754;SDS011;11544;42.020;23.094;2023-12-29T08:39:13;30.58;;;13.48;;
22754;SDS011;11544;42.020;23.094;2023-12-29T08:41:41;25.00;;;12.55;;
22754;SDS011;11544;42.020;23.094;2023-12-29T08:44:08;25.17;;;13.05;;
22754;SDS011;11544;42.020;23.094;2023-12-29T08:46:35;28.73;;;13.70;;
22754;SDS011;11544;42.020;23.094;2023-12-29T08:49:02;28.48;;;14.25;;
22754;SDS011;11544;42.020;23.094;2023-12-29T08:51:29;31.42;;;15.70;;
22754;SDS011;11544;42.020;23.094;2023-12-29T08:53:56;28.42;;;13.40;;
22754;SDS011;11544;42.020;23.094;2023-12-29T08:56:23;29.45;;;14.27;;
22754;SDS011;11544;42.020;23.094;2023-12-29T08:58:54;27.38;;;13.95;;
22754;SDS011;11544;42.020;23.094;2023-12-29T09:01:21;30.50;;;13.52;;
22754;SDS011;11544;42.020;23.094;2023-12-29T09:03:48;28.92;;;13.65;;
22754;SDS011;11544;42.020;23.094;2023-12-29T09:06:15;30.08;;;13.73;;
22754;SDS011;11544;42.020;23.094;2023-12-29T09:08:42;36.53;;;16.98;;
22754;SDS011;11544;42.020;23.094;2023-12-29T09:11:09;36.42;;;16.85;;
22754;SDS011;11544;42.020;23.094;2023-12-29T09:13:39;37.75;;;16.42;;
22754;SDS011;11544;42.020;23.094;2023-12-29T09:16:06;32.60;;;16.25;;
22754;SDS011;11544;42.020;23.094;2023-12-29T09:18:33;34.35;;;16.27;;
22754;SDS011;11544;42.020;23.094;2023-12-29T09:21:02;34.38;;;15.32;;
22754;SDS011;11544;42.020;23.094;2023-12-29T09:23:29;32.90;;;15.38;;
22754;SDS011;11544;42.020;23.094;2023-12-29T09:25:56;39.60;;;17.42;;
22754;SDS011;11544;42.020;23.094;2023-12-29T09:28:23;39.67;;;15.48;;
22754;SDS011;11544;42.020;23.094;2023-12-29T09:30:50;38.08;;;15.40;;
22754;SDS011;11544;42.020;23.094;2023-12-29T09:33:18;37.97;;;17.17;;
22754;SDS011;11544;42.020;23.094;2023-12-29T09:35:45;38.15;;;17.35;;
22754;SDS011;11544;42.020;23.094;2023-12-29T09:38:12;44.35;;;18.00;;
22754;SDS011;11544;42.020;23.094;2023-12-29T09:40:41;39.15;;;16.65;;
22754;SDS011;11544;42.020;23.094;2023-12-29T09:43:08;37.92;;;16.88;;
22754;SDS011;11544;42.020;23.094;2023-12-29T09:45:37;38.03;;;16.90;;
22754;SDS011;11544;42.020;23.094;2023-12-29T09:48:07;45.30;;;19.17;;
22754;SDS011;11544;42.020;23.094;2023-12-29T09:50:37;44.20;;;19.48;;
22754;SDS011;11544;42.020;23.094;2023-12-29T09:53:04;44.72;;;20.00;;
22754;SDS011;11544;42.020;23.094;2023-12-29T09:55:32;44.28;;;20.45;;
22754;SDS011;11544;42.020;23.094;2023-12-29T09:58:00;37.45;;;19.40;;
22754;SDS011;11544;42.020;23.094;2023-12-29T10:00:29;50.95;;;20.52;;
22754;SDS011;11544;42.020;23.094;2023-12-29T10:02:57;54.55;;;22.73;;
22754;SDS011;11544;42.020;23.094;2023-12-29T10:05:24;52.90;;;22.73;;
22754;SDS011;11544;42.020;23.094;2023-12-29T10:07:52;54.25;;;23.05;;
22754;SDS011;11544;42.020;23.094;2023-12-29T10:10:20;62.53;;;25.33;;
22754;SDS011;11544;42.020;23.094;2023-12-29T10:12:49;67.97;;;25.85;;
22754;SDS011;11544;42.020;23.094;2023-12-29T10:15:24;78.40;;;29.70;;
22754;SDS011;11544;42.020;23.094;2023-12-29T10:18:00;83.55;;;33.35;;
22754;SDS011;11544;42.020;23.094;2023-12-29T10:23:10;76.72;;;30.70;;
22754;SDS011;11544;42.020;23.094;2023-12-29T10:25:43;81.75;;;32.67;;
22754;SDS011;11544;42.020;23.094;2023-12-29T10:28:09;78.43;;;30.52;;
22754;SDS011;11544;42.020;23.094;2023-12-29T10:30:38;64.85;;;29.63;;
22754;SDS011;11544;42.020;23.094;2023-12-29T10:33:05;78.28;;;31.88;;
22754;SDS011;11544;42.020;23.094;2023-12-29T10:35:34;73.68;;;30.48;;
22754;SDS011;11544;42.020;23.094;2023-12-29T10:38:12;58.40;;;28.48;;
22754;SDS011;11544;42.020;23.094;2023-12-29T10:40:40;63.80;;;29.45;;
22754;SDS011;11544;42.020;23.094;2023-12-29T10:43:09;61.92;;;26.13;;
22754;SDS011;11544;42.020;23.094;2023-12-29T10:45:36;57.15;;;27.67;;
22754;SDS011;11544;42.020;23.094;2023-12-29T10:48:04;53.30;;;26.02;;
22754;SDS011;11544;42.020;23.094;2023-12-29T10:50:42;55.00;;;25.55;;
22754;SDS011;11544;42.020;23.094;2023-12-29T10:53:11;42.78;;;21.95;;
22754;SDS011;11544;42.020;23.094;2023-12-29T10:55:39;43.33;;;23.13;;
22754;SDS011;11544;42.020;23.094;2023-12-29T10:58:06;43.17;;;20.92;;
22754;SDS011;11544;42.020;23.094;2023-12-29T11:00:33;35.65;;;19.40;;
22754;SDS011;11544;42.020;23.094;2023-12-29T11:03:01;32.78;;;16.98;;
22754;SDS011;11544;42.020;23.094;2023-12-29T11:05:28;37.55;;;17.98;;
22754;SDS011;11544;42.020;23.094;2023-12-29T11:07:55;35.00;;;17.23;;
22754;SDS011;11544;42.020;23.094;2023-12-29T11:10:22;35.75;;;17.77;;
22754;SDS011;11544;42.020;23.094;2023-12-29T11:12:49;36.78;;;17.95;;
22754;SDS011;11544;42.020;23.094;2023-12-29T11:15:16;37.70;;;18.13;;
22754;SDS011;11544;42.020;23.094;2023-12-29T11:17:43;35.03;;;17.80;;
22754;SDS011;11544;42.020;23.094;2023-12-29T11:20:29;33.10;;;18.88;;
22754;SDS011;11544;42.020;23.094;2023-12-29T11:22:56;33.92;;;18.92;;
22754;SDS011;11544;42.020;23.094;2023-12-29T11:25:23;48.17;;;22.00;;
22754;SDS011;11544;42.020;23.094;2023-12-29T11:27:50;39.60;;;20.33;;
22754;SDS011;11544;42.020;23.094;2023-12-29T11:30:19;37.20;;;19.25;;
22754;SDS011;11544;42.020;23.094;2023-12-29T11:32:51;46.40;;;22.30;;
22754;SDS011;11544;42.020;23.094;2023-12-29T11:35:23;43.88;;;22.80;;
22754;SDS011;11544;42.020;23.094;2023-12-29T11:41:23;42.28;;;20.25;;
22754;SDS011;11544;42.020;23.094;2023-12-29T11:43:58;36.22;;;19.83;;
22754;SDS011;11544;42.020;23.094;2023-12-29T11:46:37;40.75;;;19.77;;
22754;SDS011;11544;42.020;23.094;2023-12-29T11:49:10;41.53;;;18.58;;
22754;SDS011;11544;42.020;23.094;2023-12-29T11:51:41;34.30;;;17.50;;
22754;SDS011;11544;42.020;23.094;2023-12-29T11:54:21;27.83;;;14.38;;
22754;SDS011;11544;42.020;23.094;2023-12-29T11:56:48;29.40;;;15.50;;
22754;SDS011;11544;42.020;23.094;2023-12-29T11:59:19;27.27;;;14.88;;
22754;SDS011;11544;42.020;23.094;2023-12-29T12:01:58;30.65;;;16.52;;
22754;SDS011;11544;42.020;23.094;2023-12-29T12:04:39;33.20;;;16.83;;
22754;SDS011;11544;42.020;23.094;2023-12-29T12:09:48;29.25;;;15.23;;
22754;SDS011;11544;42.020;23.094;2023-12-29T12:12:38;27.17;;;15.18;;
22754;SDS011;11544;42.020;23.094;2023-12-29T12:17:58;23.83;;;12.20;;
22754;SDS011;11544;42.020;23.094;2023-12-29T12:20:36;19.98;;;10.77;;
22754;SDS011;11544;42.020;23.094;2023-12-29T12:23:10;17.88;;;10.45;;
22754;SDS011;11544;42.020;23.094;2023-12-29T12:25:41;14.82;;;9.02;;
22754;SDS011;11544;42.020;23.094;2023-12-29T12:28:09;15.82;;;8.70;;
22754;SDS011;11544;42.020;23.094;2023-12-29T12:30:37;13.43;;;7.53;;
22754;SDS011;11544;42.020;23.094;2023-12-29T12:33:04;11.60;;;6.35;;
22754;SDS011;11544;42.020;23.094;2023-12-29T12:35:32;11.27;;;5.40;;
22754;SDS011;11544;42.020;23.094;2023-12-29T12:38:13;11.60;;;6.60;;
22754;SDS011;11544;42.020;23.094;2023-12-29T12:40:46;22.00;;;11.10;;
22754;SDS011;11544;42.020;23.094;2023-12-29T12:43:14;16.05;;;9.65;;
22754;SDS011;11544;42.020;23.094;2023-12-29T12:45:46;19.48;;;10.32;;
22754;SDS011;11544;42.020;23.094;2023-12-29T12:51:12;22.10;;;10.68;;
22754;SDS011;11544;42.020;23.094;2023-12-29T12:53:40;22.30;;;10.45;;
22754;SDS011;11544;42.020;23.094;2023-12-29T12:56:14;19.30;;;10.82;;
22754;SDS011;11544;42.020;23.094;2023-12-29T12:58:43;24.35;;;13.52;;
22754;SDS011;11544;42.020;23.094;2023-12-29T13:01:10;23.75;;;13.52;;
22754;SDS011;11544;42.020;23.094;2023-12-29T13:03:38;26.55;;;11.20;;
22754;SDS011;11544;42.020;23.094;2023-12-29T13:06:06;24.58;;;10.45;;
22754;SDS011;11544;42.020;23.094;2023-12-29T13:08:34;21.13;;;11.88;;
22754;SDS011;11544;42.020;23.094;2023-12-29T13:11:08;15.02;;;8.65;;
22754;SDS011;11544;42.020;23.094;2023-12-29T13:13:39;19.40;;;10.05;;
22754;SDS011;11544;42.020;23.094;2023-12-29T13:16:07;27.02;;;11.88;;
22754;SDS011;11544;42.020;23.094;2023-12-29T13:18:34;18.70;;;10.48;;
22754;SDS011;11544;42.020;23.094;2023-12-29T13:21:05;20.92;;;11.25;;
22754;SDS011;11544;42.020;23.094;2023-12-29T13:23:33;20.83;;;11.27;;
22754;SDS011;11544;42.020;23.094;2023-12-29T13:26:04;28.00;;;12.50;;
22754;SDS011;11544;42.020;23.094;2023-12-29T13:28:34;23.02;;;11.70;;
22754;SDS011;11544;42.020;23.094;2023-12-29T13:31:05;22.60;;;11.40;;
22754;SDS011;11544;42.020;23.094;2023-12-29T13:36:35;26.48;;;12.50;;
22754;SDS011;11544;42.020;23.094;2023-12-29T13:39:05;30.75;;;13.27;;
22754;SDS011;11544;42.020;23.094;2023-12-29T13:41:56;28.45;;;12.38;;
22754;SDS011;11544;42.020;23.094;2023-12-29T13:44:25;25.38;;;13.52;;
22754;SDS011;11544;42.020;23.094;2023-12-29T13:46:55;19.23;;;10.90;;
22754;SDS011;11544;42.020;23.094;2023-12-29T13:49:24;22.92;;;11.02;;
22754;SDS011;11544;42.020;23.094;2023-12-29T13:51:51;22.92;;;9.80;;
22754;SDS011;11544;42.020;23.094;2023-12-29T13:54:18;18.50;;;9.25;;
22754;SDS011;11544;42.020;23.094;2023-12-29T13:56:55;19.00;;;9.38;;
22754;SDS011;11544;42.020;23.094;2023-12-29T13:59:31;21.35;;;9.65;;
22754;SDS011;11544;42.020;23.094;2023-12-29T14:02:03;16.77;;;8.88;;
22754;SDS011;11544;42.020;23.094;2023-12-29T14:04:47;18.50;;;10.00;;
22754;SDS011;11544;42.020;23.094;2023-12-29T14:07:14;17.85;;;9.77;;
22754;SDS011;11544;42.020;23.094;2023-12-29T14:09:45;19.70;;;9.82;;
22754;SDS011;11544;42.020;23.094;2023-12-29T14:12:12;18.90;;;9.45;;
22754;SDS011;11544;42.020;23.094;2023-12-29T14:14:39;18.10;;;10.63;;
22754;SDS011;11544;42.020;23.094;2023-12-29T14:17:06;16.23;;;9.38;;
22754;SDS011;11544;42.020;23.094;2023-12-29T14:19:34;17.05;;;9.95;;
22754;SDS011;11544;42.020;23.094;2023-12-29T14:22:03;16.95;;;10.00;;
22754;SDS011;11544;42.020;23.094;2023-12-29T14:24:30;23.67;;;11.02;;
22754;SDS011;11544;42.020;23.094;2023-12-29T14:26:57;22.95;;;11.30;;
22754;SDS011;11544;42.020;23.094;2023-12-29T14:29:26;20.17;;;10.43;;
22754;SDS011;11544;42.020;23.094;2023-12-29T14:31:53;20.13;;;10.48;;
22754;SDS011;11544;42.020;23.094;2023-12-29T14:34:23;22.83;;;12.00;;
22754;SDS011;11544;42.020;23.094;2023-12-29T14:36:51;19.52;;;10.40;;
22754;SDS011;11544;42.020;23.094;2023-12-29T14:39:18;23.42;;;10.80;;
22754;SDS011;11544;42.020;23.094;2023-12-29T14:41:45;20.38;;;10.55;;
22754;SDS011;11544;42.020;23.094;2023-12-29T14:44:12;22.02;;;13.65;;